31A weather

Public forecast

Using degrees Fahrenheit for public forecast. Weather courtesy of forecast.io.

Closest aviation weather report (METAR) to Sugar Valley Airport

Closest report is Davidson County Airport, 15.9 nm (29.4 km) SE. Retrieved 2020/08/14 08:15 UTC (0 seconds ago):

KEXX 140815Z AUTO 00000KT 5SM BR BKN004 BKN031 OVC065 22/22 A2998 RMK AO2 T02190219

Closest aviation forecast (TAF) to Sugar Valley Airport

Closest forecast is Smith Reynolds Airport, 16.6 nm (30.8 km) ENE. Retrieved 2020/08/14 06:39 UTC (2 hours ago):

TAF KINT 140537Z 1406/1506 02003KT P6SM SCT018 BKN250 TEMPO 1406/1408 SCT003 BKN010 FM140800 04003KT 2SM BR OVC003 FM141400 05005KT P6SM OVC007 FM141600 04004KT P6SM SCT008 BKN015 FM141900 06004KT P6SM VCSH SCT025 BKN040 BKN250